Time;durP1;ratioP1;P1;durP2;ratioP2;P2;SDS_P1;SDS_P2;PMS_P1;PMS_P2;Temp;Humidity;BMP_temperature;BMP_pressure;BME280_temperature;BME280_humidity;BME280_pressure;Samples;Min_cycle;Max_cycle;Signal;HPM_P1;HPM_P2
2023/12/08 00:00:56;;;;;;;13.98;6.10;;;3.30;83.40;;;;;;5046683;28;20077;-83
2023/12/08 00:03:23;;;;;;;11.32;5.03;;;3.30;83.40;;;;;;5048184;28;20574;-83
2023/12/08 00:05:49;;;;;;;13.45;6.05;;;3.30;83.30;;;;;;5068266;28;20061;-83
2023/12/08 00:08:19;;;;;;;13.67;5.80;;;3.30;83.20;;;;;;5066727;28;20056;-83
2023/12/08 00:10:46;;;;;;;12.68;5.95;;;3.30;83.60;;;;;;5068554;28;20052;-83
2023/12/08 00:13:12;;;;;;;14.60;6.13;;;3.30;83.80;;;;;;5066916;28;20053;-82
2023/12/08 00:15:39;;;;;;;13.23;5.63;;;3.30;83.50;;;;;;5065860;28;20055;-83
2023/12/08 00:18:06;;;;;;;12.93;5.53;;;3.30;83.60;;;;;;5066922;28;20045;-82
2023/12/08 00:20:33;;;;;;;14.83;6.43;;;3.30;82.90;;;;;;5066219;28;20060;-83
2023/12/08 00:23:00;;;;;;;13.90;6.22;;;3.20;82.70;;;;;;5066182;28;20045;-83
2023/12/08 00:25:28;;;;;;;12.88;5.93;;;3.30;83.00;;;;;;5099963;28;20052;-83
2023/12/08 00:27:55;;;;;;;13.23;5.68;;;3.30;83.30;;;;;;5049809;28;20057;-83
2023/12/08 00:30:22;;;;;;;12.98;5.55;;;3.20;82.90;;;;;;5067856;28;20091;-83
2023/12/08 00:32:49;;;;;;;14.43;6.23;;;3.30;83.40;;;;;;5055354;28;20053;-84
2023/12/08 00:35:16;;;;;;;14.40;6.47;;;3.30;82.70;;;;;;5047563;28;20050;-83
2023/12/08 00:37:43;;;;;;;14.07;6.05;;;3.20;83.20;;;;;;5091283;28;20057;-83
2023/12/08 00:40:11;;;;;;;14.55;6.57;;;3.30;83.20;;;;;;5067749;28;20061;-82
2023/12/08 00:42:39;;;;;;;14.38;6.28;;;3.30;83.00;;;;;;5065783;28;20052;-83
2023/12/08 00:45:07;;;;;;;15.10;6.17;;;3.30;83.10;;;;;;5082886;28;20045;-83
2023/12/08 00:47:35;;;;;;;15.23;6.82;;;3.20;83.00;;;;;;5067729;28;20045;-82
2023/12/08 00:50:02;;;;;;;16.70;6.70;;;3.20;82.60;;;;;;5066236;28;20060;-83
2023/12/08 00:52:29;;;;;;;15.57;6.85;;;3.10;82.40;;;;;;5082919;28;20057;-83
2023/12/08 00:54:56;;;;;;;14.68;6.63;;;3.10;82.80;;;;;;5067626;28;20053;-83
2023/12/08 00:57:23;;;;;;;13.13;6.13;;;3.10;83.00;;;;;;5066689;28;20056;-83
2023/12/08 00:59:51;;;;;;;16.10;7.28;;;3.10;83.80;;;;;;5067817;28;20056;-83
2023/12/08 01:02:18;;;;;;;14.30;6.40;;;3.20;84.00;;;;;;5070848;28;20633;-83
2023/12/08 01:04:45;;;;;;;15.95;7.15;;;3.20;84.50;;;;;;5084780;28;20651;-83
2023/12/08 01:07:12;;;;;;;15.57;6.43;;;3.30;83.80;;;;;;5066139;28;20046;-82
2023/12/08 01:09:39;;;;;;;16.97;7.37;;;3.30;83.80;;;;;;5049319;28;20045;-82
2023/12/08 01:12:06;;;;;;;15.20;6.20;;;3.30;84.30;;;;;;5052800;28;20051;-82
2023/12/08 01:14:33;;;;;;;16.60;6.90;;;3.30;84.70;;;;;;5069275;28;20056;-83
2023/12/08 01:17:02;;;;;;;16.25;7.07;;;3.30;84.30;;;;;;5070642;28;20053;-83
2023/12/08 01:19:28;;;;;;;15.32;6.97;;;3.40;84.60;;;;;;5071181;28;20763;-83
2023/12/08 01:21:55;;;;;;;14.30;6.97;;;3.40;84.50;;;;;;5068111;28;20060;-83
2023/12/08 01:24:22;;;;;;;17.60;7.40;;;3.40;84.00;;;;;;5052223;28;20544;-83
2023/12/08 01:26:49;;;;;;;14.20;6.57;;;3.40;83.80;;;;;;5103194;28;20106;-83
2023/12/08 01:29:16;;;;;;;17.35;7.32;;;3.50;84.00;;;;;;5069079;28;20049;-83
2023/12/08 01:31:43;;;;;;;15.20;6.97;;;3.40;83.80;;;;;;5069058;28;20049;-83
2023/12/08 01:34:12;;;;;;;14.10;6.63;;;3.50;83.60;;;;;;5068998;28;20053;-83
2023/12/08 01:36:39;;;;;;;15.10;6.68;;;3.40;83.30;;;;;;5069105;28;20096;-83
2023/12/08 01:39:05;;;;;;;15.80;7.00;;;3.40;83.70;;;;;;5067481;28;20053;-83
2023/12/08 01:41:33;;;;;;;17.55;7.30;;;3.40;83.50;;;;;;5068707;28;20102;-82
2023/12/08 01:44:00;;;;;;;16.95;7.28;;;3.40;83.00;;;;;;5068720;28;20079;-83
2023/12/08 01:46:27;;;;;;;15.13;6.97;;;3.40;83.20;;;;;;5069048;28;20083;-82
2023/12/08 01:48:54;;;;;;;17.15;7.63;;;3.40;83.80;;;;;;5052110;28;20049;-82
2023/12/08 01:51:23;;;;;;;15.90;7.20;;;3.40;83.50;;;;;;5070161;28;20041;-83
2023/12/08 01:53:51;;;;;;;14.52;6.95;;;3.40;83.50;;;;;;5070108;28;20077;-83
2023/12/08 01:56:18;;;;;;;14.68;7.10;;;3.50;83.50;;;;;;5067634;28;20056;-83
2023/12/08 01:58:45;;;;;;;14.93;6.70;;;3.50;83.40;;;;;;5068674;28;20049;-82
2023/12/08 02:01:12;;;;;;;15.77;6.85;;;3.50;83.70;;;;;;5085356;28;20744;-83
2023/12/08 02:03:41;;;;;;;16.88;6.95;;;3.50;83.80;;;;;;5085083;28;20053;-83
2023/12/08 02:06:08;;;;;;;14.70;6.90;;;3.50;83.50;;;;;;5068695;28;20040;-83
2023/12/08 02:08:37;;;;;;;16.05;7.68;;;3.50;83.10;;;;;;5086046;28;20180;-83
2023/12/08 02:11:04;;;;;;;15.47;7.37;;;3.50;82.90;;;;;;5052170;28;20549;-83
2023/12/08 02:13:31;;;;;;;16.38;7.50;;;3.50;83.40;;;;;;5084452;28;20073;-83
2023/12/08 02:16:05;;;;;;;16.33;7.50;;;3.50;83.70;;;;;;5068777;28;20048;-83
2023/12/08 02:18:33;;;;;;;15.68;7.03;;;3.50;83.60;;;;;;5068709;28;20120;-83
2023/12/08 02:21:02;;;;;;;16.02;7.63;;;3.50;84.10;;;;;;5068148;28;20037;-84
2023/12/08 02:23:29;;;;;;;15.97;7.43;;;3.50;83.90;;;;;;5069685;28;20053;-83
2023/12/08 02:25:57;;;;;;;15.90;7.82;;;3.50;83.70;;;;;;5068371;28;20051;-82
2023/12/08 02:28:24;;;;;;;17.15;8.13;;;3.60;83.80;;;;;;5066943;28;20053;-83
2023/12/08 02:30:54;;;;;;;15.43;7.63;;;3.60;83.70;;;;;;5047694;28;20057;-83
2023/12/08 02:33:28;;;;;;;16.50;7.47;;;3.60;83.80;;;;;;5049700;28;20420;-83
2023/12/08 02:35:56;;;;;;;19.23;8.03;;;3.60;83.10;;;;;;5069540;28;20084;-83
2023/12/08 02:38:24;;;;;;;17.55;8.05;;;3.50;82.80;;;;;;5101988;28;20060;-83
2023/12/08 02:40:51;;;;;;;17.02;7.15;;;3.50;82.60;;;;;;5067933;28;20479;-83
2023/12/08 02:43:19;;;;;;;14.90;7.82;;;3.50;82.90;;;;;;5067970;28;20048;-83
2023/12/08 02:45:46;;;;;;;15.82;7.40;;;3.50;82.70;;;;;;5062642;28;20045;-83
2023/12/08 02:48:13;;;;;;;17.47;7.73;;;3.50;83.10;;;;;;5048195;28;20053;-82
2023/12/08 02:50:41;;;;;;;15.90;7.25;;;3.50;83.00;;;;;;5067257;28;20935;-83
2023/12/08 02:53:08;;;;;;;18.48;7.93;;;3.50;83.20;;;;;;5067101;28;20058;-83
2023/12/08 02:55:35;;;;;;;18.15;8.02;;;3.50;83.20;;;;;;5067641;28;20160;-83
2023/12/08 02:58:02;;;;;;;16.10;7.20;;;3.50;83.30;;;;;;5083281;28;20206;-83
2023/12/08 03:00:30;;;;;;;18.63;8.17;;;3.50;82.80;;;;;;5067470;28;20150;-83
2023/12/08 03:02:57;;;;;;;16.10;7.43;;;3.50;82.80;;;;;;5073912;28;20423;-82
2023/12/08 03:05:24;;;;;;;17.15;7.65;;;3.50;82.40;;;;;;5047615;28;20373;-83
2023/12/08 03:07:51;;;;;;;18.23;7.82;;;3.50;82.20;;;;;;5054003;28;20057;-83
2023/12/08 03:10:17;;;;;;;16.92;7.32;;;3.50;81.90;;;;;;5066128;28;20160;-83
2023/12/08 03:12:44;;;;;;;16.73;7.50;;;3.30;81.70;;;;;;5063027;28;20508;-83
2023/12/08 03:15:11;;;;;;;15.32;7.18;;;3.30;81.90;;;;;;5047730;28;20148;-83
2023/12/08 03:17:39;;;;;;;15.95;6.93;;;3.30;81.60;;;;;;5054595;28;20056;-83
2023/12/08 03:20:07;;;;;;;16.02;7.07;;;3.30;81.70;;;;;;5049244;28;20047;-82
2023/12/08 03:22:34;;;;;;;16.60;7.00;;;3.20;81.50;;;;;;5049986;28;20654;-82
2023/12/08 03:25:01;;;;;;;16.03;7.47;;;3.20;81.60;;;;;;5068788;28;20081;-83
2023/12/08 03:27:28;;;;;;;15.98;7.47;;;3.10;81.90;;;;;;5050673;28;20049;-83
2023/12/08 03:29:54;;;;;;;17.30;7.57;;;3.10;82.00;;;;;;5063543;28;20096;-82
2023/12/08 03:32:21;;;;;;;18.60;8.07;;;3.10;81.70;;;;;;5083291;28;20525;-83
2023/12/08 03:34:50;;;;;;;15.93;7.38;;;3.10;82.00;;;;;;5084096;28;20060;-82
2023/12/08 03:37:16;;;;;;;18.50;7.80;;;3.10;81.90;;;;;;5067013;28;20061;-82
2023/12/08 03:39:44;;;;;;;15.93;7.10;;;3.10;82.40;;;;;;5084002;28;20049;-83
2023/12/08 03:42:11;;;;;;;15.68;7.55;;;3.10;82.80;;;;;;5066852;28;20064;-82
2023/12/08 03:44:38;;;;;;;16.27;7.20;;;3.10;82.90;;;;;;5066916;28;20450;-82
2023/12/08 03:47:05;;;;;;;15.90;7.20;;;3.10;83.00;;;;;;5066741;28;20053;-83
2023/12/08 03:49:32;;;;;;;16.67;7.57;;;3.10;83.00;;;;;;5067202;28;20131;-83
2023/12/08 03:52:00;;;;;;;15.55;7.22;;;3.10;83.00;;;;;;5065216;28;20053;-83
2023/12/08 03:54:27;;;;;;;16.35;7.10;;;3.10;83.00;;;;;;5048411;28;20676;-82
2023/12/08 03:56:54;;;;;;;15.75;7.05;;;3.10;82.70;;;;;;5066764;28;20052;-82
2023/12/08 03:59:21;;;;;;;14.88;6.97;;;3.10;82.90;;;;;;5065591;28;20075;-82
2023/12/08 04:01:52;;;;;;;15.27;6.83;;;3.10;82.90;;;;;;5065267;28;20056;-82
2023/12/08 04:04:19;;;;;;;15.00;7.07;;;3.10;82.90;;;;;;5065606;28;20052;-82
2023/12/08 04:06:46;;;;;;;18.05;7.75;;;3.10;82.80;;;;;;5067115;28;20045;-83
2023/12/08 04:09:14;;;;;;;15.70;6.82;;;3.10;82.40;;;;;;5047647;28;20088;-82
2023/12/08 04:11:41;;;;;;;16.15;7.03;;;3.00;83.00;;;;;;5065308;28;20140;-83
2023/12/08 04:14:08;;;;;;;17.73;7.13;;;3.00;82.90;;;;;;5048232;28;20052;-82
2023/12/08 04:16:34;;;;;;;16.42;6.95;;;3.00;83.00;;;;;;5065475;28;20683;-83
2023/12/08 04:19:01;;;;;;;16.85;7.20;;;3.00;82.70;;;;;;5065089;28;20124;-82
2023/12/08 04:21:28;;;;;;;16.23;7.50;;;2.90;82.70;;;;;;5066536;28;20053;-82
2023/12/08 04:23:55;;;;;;;14.73;7.07;;;2.90;82.70;;;;;;5065221;28;20049;-82
2023/12/08 04:26:24;;;;;;;17.63;7.37;;;2.90;82.80;;;;;;5049787;28;20041;-82
2023/12/08 04:28:53;;;;;;;17.77;7.68;;;2.80;82.90;;;;;;5065399;28;20064;-83
2023/12/08 04:31:20;;;;;;;15.50;7.10;;;2.80;82.80;;;;;;5064994;28;20063;-82
2023/12/08 04:33:47;;;;;;;15.48;6.85;;;2.70;82.70;;;;;;5048120;28;20049;-82
2023/12/08 04:36:14;;;;;;;18.92;7.60;;;2.70;82.80;;;;;;5069346;28;20586;-82
2023/12/08 04:38:41;;;;;;;16.77;6.57;;;2.60;82.80;;;;;;5070530;28;20565;-82
2023/12/08 04:41:08;;;;;;;16.02;7.13;;;2.50;82.80;;;;;;5102816;28;20061;-83
2023/12/08 04:43:36;;;;;;;15.23;6.88;;;2.50;82.90;;;;;;5064427;28;20122;-83
2023/12/08 04:46:04;;;;;;;14.68;6.05;;;2.50;83.10;;;;;;5082527;28;20054;-82
2023/12/08 04:48:31;;;;;;;16.52;7.60;;;2.40;83.20;;;;;;5058045;28;20051;-82
2023/12/08 04:50:59;;;;;;;15.87;7.40;;;2.40;83.20;;;;;;5069073;28;20064;-83
2023/12/08 04:53:25;;;;;;;16.80;7.20;;;2.30;83.40;;;;;;5032258;28;1062295;-82
2023/12/08 04:55:52;;;;;;;17.20;7.68;;;2.30;83.50;;;;;;5070037;28;20169;-82
2023/12/08 04:58:20;;;;;;;19.87;7.90;;;2.30;83.80;;;;;;5070863;28;20048;-82
2023/12/08 05:00:49;;;;;;;16.30;7.28;;;2.30;83.80;;;;;;5068911;28;20371;-82
2023/12/08 05:03:16;;;;;;;18.10;7.15;;;2.20;83.80;;;;;;5071567;28;20060;-82
2023/12/08 05:05:43;;;;;;;17.95;7.38;;;2.20;83.80;;;;;;5069925;28;20053;-82
2023/12/08 05:08:10;;;;;;;15.25;7.05;;;2.20;84.20;;;;;;5069363;28;20629;-82
2023/12/08 05:10:37;;;;;;;17.77;7.57;;;2.20;84.10;;;;;;5069944;28;20057;-82
2023/12/08 05:13:04;;;;;;;16.67;6.82;;;2.20;84.00;;;;;;5069828;28;20275;-82
2023/12/08 05:15:30;;;;;;;20.30;7.70;;;2.20;84.10;;;;;;5052917;28;20049;-82
2023/12/08 05:17:58;;;;;;;16.88;7.45;;;2.10;84.30;;;;;;5069203;28;20049;-82
2023/12/08 05:20:25;;;;;;;16.67;7.27;;;2.20;84.50;;;;;;5069370;28;20077;-83
2023/12/08 05:22:52;;;;;;;17.60;7.00;;;2.10;84.70;;;;;;5069047;28;20258;-82
2023/12/08 05:25:19;;;;;;;19.35;7.75;;;2.10;84.70;;;;;;5069176;28;20059;-82
2023/12/08 05:27:46;;;;;;;15.32;6.18;;;2.10;85.00;;;;;;5069097;28;20439;-82
2023/12/08 05:30:13;;;;;;;18.27;8.20;;;2.20;85.60;;;;;;5069519;28;20053;-82
2023/12/08 05:32:45;;;;;;;15.17;7.00;;;2.30;85.70;;;;;;5068975;28;20053;-82
2023/12/08 05:35:13;;;;;;;18.48;7.65;;;2.30;85.40;;;;;;5068810;28;20290;-82
2023/12/08 05:37:40;;;;;;;16.80;7.57;;;2.30;85.60;;;;;;5069267;28;20048;-83
2023/12/08 05:40:08;;;;;;;17.73;7.47;;;2.40;85.70;;;;;;5050325;28;20053;-82
2023/12/08 05:42:35;;;;;;;16.40;7.32;;;2.40;85.70;;;;;;5049419;28;20057;-82
2023/12/08 05:45:02;;;;;;;18.70;7.47;;;2.50;85.70;;;;;;5085686;28;20055;-82
2023/12/08 05:47:29;;;;;;;18.15;7.68;;;2.50;85.40;;;;;;5068808;28;20252;-82
2023/12/08 05:49:56;;;;;;;18.98;8.30;;;2.50;85.50;;;;;;5081287;28;20358;-83
2023/12/08 05:52:24;;;;;;;17.40;7.53;;;2.50;85.30;;;;;;5048896;28;20056;-82
2023/12/08 05:54:51;;;;;;;18.00;7.55;;;2.50;85.50;;;;;;5054432;28;20052;-82
2023/12/08 05:57:18;;;;;;;18.90;8.03;;;2.50;85.50;;;;;;5051780;28;20719;-82
2023/12/08 05:59:45;;;;;;;19.48;8.02;;;2.50;85.40;;;;;;5068511;28;20271;-82
2023/12/08 06:02:12;;;;;;;18.70;7.43;;;2.60;85.20;;;;;;5068872;28;20569;-82
2023/12/08 06:04:39;;;;;;;19.27;7.65;;;2.60;85.10;;;;;;5085878;28;20063;-82
2023/12/08 06:07:06;;;;;;;18.23;7.40;;;2.60;85.00;;;;;;5085377;28;20158;-82
2023/12/08 06:09:34;;;;;;;19.17;8.50;;;2.60;85.00;;;;;;5068930;28;20080;-82
2023/12/08 06:12:01;;;;;;;18.02;8.32;;;2.60;84.80;;;;;;5068955;28;20251;-81
2023/12/08 06:14:28;;;;;;;17.27;8.05;;;2.60;84.80;;;;;;5085621;28;20055;-81
2023/12/08 06:16:55;;;;;;;18.98;8.52;;;2.60;84.70;;;;;;5032355;28;20056;-81
2023/12/08 06:19:22;;;;;;;16.73;7.63;;;2.60;84.70;;;;;;5032343;28;20053;-81
2023/12/08 06:21:49;;;;;;;19.30;7.83;;;2.60;84.70;;;;;;5049869;28;20057;-83
2023/12/08 06:24:17;;;;;;;17.90;7.70;;;2.60;84.70;;;;;;5049566;28;20271;-82
2023/12/08 06:26:45;;;;;;;17.70;7.93;;;2.60;85.00;;;;;;5068484;28;20099;-82
2023/12/08 06:29:12;;;;;;;19.02;8.07;;;2.70;85.10;;;;;;5067721;28;20115;-82
2023/12/08 06:31:39;;;;;;;17.08;7.35;;;2.70;85.10;;;;;;5069799;28;20070;-83
2023/12/08 06:34:05;;;;;;;17.10;7.97;;;2.70;84.80;;;;;;5069512;28;20057;-85
2023/12/08 06:36:32;;;;;;;16.58;7.95;;;2.70;84.70;;;;;;5069670;28;20625;-83
2023/12/08 06:39:00;;;;;;;16.35;7.85;;;2.70;84.60;;;;;;5069519;28;20140;-82
2023/12/08 06:41:27;;;;;;;18.77;7.82;;;2.70;84.90;;;;;;5067519;28;20088;-82
2023/12/08 06:43:55;;;;;;;17.13;7.95;;;2.70;84.70;;;;;;5069093;28;20568;-82
2023/12/08 06:46:22;;;;;;;17.63;8.17;;;2.70;84.80;;;;;;5067320;28;20052;-83
2023/12/08 06:48:49;;;;;;;18.65;7.78;;;2.70;84.80;;;;;;5061531;28;20268;-82
2023/12/08 06:51:16;;;;;;;17.70;7.45;;;2.60;84.90;;;;;;5049618;28;20037;-82
2023/12/08 06:53:43;;;;;;;18.33;7.53;;;2.70;84.90;;;;;;5059278;28;20685;-83
2023/12/08 06:56:10;;;;;;;16.45;7.60;;;2.70;85.30;;;;;;5074172;28;20522;-82
2023/12/08 06:58:37;;;;;;;17.07;8.03;;;2.70;85.10;;;;;;5059187;28;20466;-82
2023/12/08 07:01:05;;;;;;;17.65;7.72;;;2.70;85.10;;;;;;5076356;28;20257;-83
2023/12/08 07:03:32;;;;;;;18.40;7.80;;;2.70;85.20;;;;;;5072990;28;20483;-83
2023/12/08 07:05:59;;;;;;;16.23;7.45;;;2.70;85.10;;;;;;5059990;28;20594;-82
2023/12/08 07:08:26;;;;;;;18.70;7.97;;;2.70;85.00;;;;;;5068873;28;20900;-82
2023/12/08 07:10:53;;;;;;;18.17;8.47;;;2.70;85.10;;;;;;5067467;28;20094;-82
2023/12/08 07:13:20;;;;;;;17.60;7.80;;;2.70;85.10;;;;;;5050134;28;20272;-83
2023/12/08 07:15:47;;;;;;;17.73;7.78;;;2.70;85.20;;;;;;5062404;28;20573;-81
2023/12/08 07:18:17;;;;;;;17.23;7.72;;;2.70;85.50;;;;;;5059752;28;20422;-81
2023/12/08 07:20:44;;;;;;;18.45;8.00;;;2.80;85.60;;;;;;5065619;28;20184;-81
2023/12/08 07:23:10;;;;;;;21.20;8.23;;;2.80;85.70;;;;;;5066243;28;20059;-82
2023/12/08 07:25:37;;;;;;;18.20;7.50;;;2.80;85.30;;;;;;5076981;28;20287;-81
2023/12/08 07:28:08;;;;;;;17.25;7.88;;;2.80;85.10;;;;;;5065340;28;20053;-80
2023/12/08 07:30:35;;;;;;;18.65;7.72;;;2.80;85.00;;;;;;5058478;28;21025;-81
2023/12/08 07:33:03;;;;;;;19.13;8.23;;;2.80;84.80;;;;;;5063277;28;20798;-81
2023/12/08 07:35:32;;;;;;;19.37;8.77;;;2.80;84.90;;;;;;5064660;28;20135;-81
2023/12/08 07:37:59;;;;;;;18.23;8.43;;;2.80;84.70;;;;;;5066916;28;20282;-81
2023/12/08 07:40:26;;;;;;;18.48;7.93;;;2.70;84.60;;;;;;5064232;28;20114;-81
2023/12/08 07:42:54;;;;;;;18.92;8.05;;;2.70;84.40;;;;;;5068430;28;20059;-81
2023/12/08 07:45:21;;;;;;;20.30;8.77;;;2.70;84.20;;;;;;5084079;28;20600;-81
2023/12/08 07:47:48;;;;;;;19.87;8.47;;;2.50;84.50;;;;;;5066708;28;20052;-81
2023/12/08 07:50:15;;;;;;;19.38;8.70;;;2.50;84.80;;;;;;5066332;28;20804;-81
2023/12/08 07:52:44;;;;;;;17.67;7.28;;;2.50;84.90;;;;;;5065058;28;20045;-81
2023/12/08 07:55:11;;;;;;;18.00;8.20;;;2.60;85.10;;;;;;5080080;28;20055;-80
2023/12/08 07:57:38;;;;;;;19.35;8.23;;;2.60;84.90;;;;;;5067720;28;20052;-81
2023/12/08 08:00:08;;;;;;;16.60;7.57;;;2.50;84.80;;;;;;5068210;28;20056;-81
2023/12/08 08:02:35;;;;;;;19.05;8.77;;;2.50;84.70;;;;;;5057494;28;20287;-81
2023/12/08 08:05:02;;;;;;;20.00;7.60;;;2.50;84.70;;;;;;5061348;28;20061;-81
2023/12/08 08:07:29;;;;;;;18.90;8.70;;;2.50;84.70;;;;;;5067102;28;20049;-80
2023/12/08 08:09:57;;;;;;;19.85;8.55;;;2.50;84.80;;;;;;5066331;28;20526;-81
2023/12/08 08:12:24;;;;;;;16.80;7.87;;;2.50;85.00;;;;;;5067063;28;20122;-81
2023/12/08 08:14:51;;;;;;;16.80;7.88;;;2.50;85.20;;;;;;5068045;28;20279;-80
2023/12/08 08:17:18;;;;;;;20.00;8.60;;;2.50;85.40;;;;;;5066784;28;20056;-81
2023/12/08 08:19:45;;;;;;;18.23;7.43;;;2.50;85.20;;;;;;5067098;28;20581;-81
2023/12/08 08:22:12;;;;;;;18.70;7.95;;;2.50;85.30;;;;;;5063596;28;20045;-81
2023/12/08 08:24:39;;;;;;;16.47;7.20;;;2.50;85.30;;;;;;5065167;28;20056;-82
2023/12/08 08:27:08;;;;;;;17.77;7.80;;;2.50;85.40;;;;;;5049294;28;20295;-81
2023/12/08 08:29:35;;;;;;;16.63;7.72;;;2.50;85.50;;;;;;5065162;28;20162;-81
2023/12/08 08:32:02;;;;;;;16.38;7.43;;;2.60;85.70;;;;;;5065392;28;20045;-81
2023/12/08 08:34:30;;;;;;;19.17;7.45;;;2.70;85.80;;;;;;5067064;28;20580;-80
2023/12/08 08:36:56;;;;;;;17.10;7.90;;;2.70;85.60;;;;;;5065787;28;20053;-84
2023/12/08 08:39:23;;;;;;;21.00;8.35;;;2.70;85.50;;;;;;5063661;28;20945;-83
2023/12/08 08:41:50;;;;;;;18.83;8.40;;;2.70;85.40;;;;;;5065477;28;20060;-82
2023/12/08 08:44:19;;;;;;;16.75;7.35;;;2.70;85.40;;;;;;5065039;28;20134;-82
2023/12/08 08:46:46;;;;;;;19.63;7.88;;;2.70;85.40;;;;;;5082460;28;20045;-85
2023/12/08 08:49:13;;;;;;;19.10;7.23;;;2.70;85.20;;;;;;5064468;28;20096;-81
2023/12/08 08:51:40;;;;;;;16.38;7.10;;;2.70;85.20;;;;;;5065770;28;20252;-81
2023/12/08 08:54:07;;;;;;;17.67;7.65;;;2.70;85.20;;;;;;5064385;28;20084;-83
2023/12/08 08:56:33;;;;;;;18.35;8.45;;;2.70;85.20;;;;;;5063185;28;20053;-84
2023/12/08 08:59:00;;;;;;;20.88;8.25;;;2.70;85.20;;;;;;5064343;28;20052;-85
2023/12/08 09:01:29;;;;;;;19.60;7.67;;;2.70;85.40;;;;;;5064535;28;20056;-84
2023/12/08 09:03:56;;;;;;;20.58;8.10;;;2.70;85.70;;;;;;5065917;28;21549;-82
2023/12/08 09:06:24;;;;;;;18.38;8.23;;;2.80;85.70;;;;;;5047546;28;20053;-81
2023/12/08 09:08:51;;;;;;;17.58;7.35;;;2.80;85.50;;;;;;5064686;28;20531;-79
2023/12/08 09:11:18;;;;;;;17.05;7.35;;;2.80;85.50;;;;;;5065545;28;20530;-79
2023/12/08 09:13:45;;;;;;;17.10;7.50;;;2.80;85.50;;;;;;5062530;28;20101;-79
2023/12/08 09:16:12;;;;;;;19.63;7.85;;;2.90;85.60;;;;;;5065123;28;20277;-79
2023/12/08 09:18:40;;;;;;;19.40;7.72;;;2.90;85.30;;;;;;5057393;28;20132;-82
2023/12/08 09:21:07;;;;;;;18.50;7.90;;;2.80;85.20;;;;;;5057762;28;20057;-81
2023/12/08 09:23:34;;;;;;;16.88;7.70;;;2.80;85.20;;;;;;5065009;28;20059;-84
2023/12/08 09:26:01;;;;;;;17.23;7.60;;;2.80;85.20;;;;;;5059341;28;20076;-81
2023/12/08 09:28:28;;;;;;;17.95;8.00;;;2.80;85.10;;;;;;5063051;28;20282;-81
2023/12/08 09:31:20;;;;;;;18.23;7.65;;;2.80;85.10;;;;;;5052344;28;20060;-80
2023/12/08 09:33:48;;;;;;;18.75;7.75;;;2.80;85.20;;;;;;5056426;28;20053;-81
2023/12/08 09:36:15;;;;;;;18.70;7.45;;;2.80;85.30;;;;;;5069806;28;20056;-82
2023/12/08 09:38:42;;;;;;;22.10;8.10;;;2.90;85.30;;;;;;5054895;28;20045;-82
2023/12/08 09:41:10;;;;;;;18.30;8.48;;;2.80;85.30;;;;;;5040266;28;20248;-82
2023/12/08 09:43:43;;;;;;;18.63;8.15;;;2.90;85.30;;;;;;5058168;28;20537;-79
2023/12/08 09:46:10;;;;;;;19.25;8.25;;;2.90;85.20;;;;;;5060381;28;20049;-80
2023/12/08 09:48:38;;;;;;;18.50;7.55;;;2.90;85.00;;;;;;5067461;28;20063;-82
2023/12/08 09:51:07;;;;;;;17.87;8.60;;;2.90;85.10;;;;;;5083956;28;20064;-82
2023/12/08 09:53:37;;;;;;;18.52;8.77;;;2.80;85.00;;;;;;5063684;28;20267;-82
2023/12/08 09:56:05;;;;;;;21.70;8.63;;;2.90;85.10;;;;;;5062707;28;20127;-80
2023/12/08 09:58:32;;;;;;;17.77;8.27;;;2.80;85.10;;;;;;5091641;28;20057;-79
2023/12/08 10:01:00;;;;;;;20.60;8.98;;;2.80;85.10;;;;;;5070015;28;20053;-78
2023/12/08 10:03:27;;;;;;;19.80;8.60;;;2.80;84.90;;;;;;5070854;28;20512;-77
2023/12/08 10:05:55;;;;;;;18.05;8.48;;;2.80;85.00;;;;;;5069956;28;20268;-83
2023/12/08 10:08:25;;;;;;;19.75;8.45;;;2.80;85.10;;;;;;5069887;28;20079;-86
2023/12/08 10:10:52;;;;;;;19.52;9.23;;;2.80;85.10;;;;;;5065906;28;20053;-86
2023/12/08 10:13:20;;;;;;;20.27;9.23;;;2.80;85.20;;;;;;5065058;28;20056;-82
2023/12/08 10:15:47;;;;;;;18.47;8.60;;;2.80;85.10;;;;;;5070160;28;20111;-85
2023/12/08 10:18:24;;;;;;;21.55;9.45;;;2.80;85.10;;;;;;5068599;28;20669;-85
2023/12/08 10:20:51;;;;;;;21.70;9.32;;;2.80;85.20;;;;;;5064938;28;20053;-86
2023/12/08 10:23:22;;;;;;;19.88;9.07;;;2.80;85.10;;;;;;5063179;28;20503;-86
2023/12/08 10:25:50;;;;;;;21.83;10.18;;;2.80;85.20;;;;;;5048073;28;20058;-85
2023/12/08 10:28:17;;;;;;;23.13;9.70;;;2.80;85.30;;;;;;5066828;28;20056;-85
2023/12/08 10:30:50;;;;;;;19.98;8.70;;;2.80;85.50;;;;;;5066259;28;20348;-86
2023/12/08 10:33:21;;;;;;;22.05;9.43;;;2.80;85.50;;;;;;5048100;28;20064;-86
2023/12/08 10:35:48;;;;;;;21.60;9.30;;;2.80;85.40;;;;;;5068381;28;20076;-85
2023/12/08 10:38:15;;;;;;;20.30;9.25;;;2.80;85.40;;;;;;5065306;28;20091;-85
2023/12/08 10:40:46;;;;;;;21.37;9.67;;;2.80;85.30;;;;;;5066261;28;20053;-84
2023/12/08 10:43:23;;;;;;;21.67;9.85;;;2.80;85.30;;;;;;5058374;28;20350;-84
2023/12/08 10:45:51;;;;;;;22.50;9.10;;;2.80;85.50;;;;;;5040163;28;20344;-85
2023/12/08 10:48:20;;;;;;;21.17;9.65;;;2.80;85.50;;;;;;5063390;28;20053;-85
2023/12/08 10:50:49;;;;;;;23.17;8.90;;;2.80;85.40;;;;;;5053805;28;20208;-85
2023/12/08 10:53:18;;;;;;;24.20;9.40;;;2.80;85.40;;;;;;5056367;28;20060;-85
2023/12/08 10:55:46;;;;;;;22.42;9.75;;;2.80;85.30;;;;;;5063378;28;20624;-85
2023/12/08 10:58:15;;;;;;;26.08;10.27;;;2.80;85.40;;;;;;5064647;28;20051;-86
2023/12/08 11:00:45;;;;;;;27.35;10.80;;;2.80;85.60;;;;;;5060016;28;20059;-86
2023/12/08 11:03:15;;;;;;;25.80;10.80;;;2.80;85.60;;;;;;5057979;28;20096;-86
2023/12/08 11:05:47;;;;;;;26.37;10.23;;;2.80;85.70;;;;;;5048230;28;20433;-86
2023/12/08 11:08:18;;;;;;;22.02;10.13;;;2.90;85.60;;;;;;5065597;28;20252;-86
2023/12/08 11:10:47;;;;;;;25.67;10.27;;;2.90;85.60;;;;;;5049200;28;20049;-86
2023/12/08 11:13:20;;;;;;;25.75;10.65;;;2.90;85.70;;;;;;5081494;28;20049;-87
2023/12/08 11:16:06;;;;;;;25.48;10.88;;;2.90;85.70;;;;;;5064474;28;20056;-87
2023/12/08 11:18:36;;;;;;;26.27;9.97;;;2.90;85.70;;;;;;5079458;28;20110;-86
2023/12/08 11:21:07;;;;;;;25.77;10.40;;;2.90;85.70;;;;;;5081161;28;20931;-87
2023/12/08 11:23:35;;;;;;;26.58;10.45;;;2.90;85.80;;;;;;5066305;28;20486;-87
2023/12/08 11:26:06;;;;;;;26.77;10.00;;;2.90;85.80;;;;;;5049568;28;20044;-86
2023/12/08 11:28:42;;;;;;;29.00;10.40;;;3.00;85.80;;;;;;5066109;28;20679;-86
2023/12/08 11:31:27;;;;;;;25.67;10.47;;;3.00;85.80;;;;;;5034565;28;20057;-86
2023/12/08 11:33:59;;;;;;;25.48;10.45;;;3.00;85.80;;;;;;5065091;28;20286;-86
2023/12/08 11:36:28;;;;;;;25.17;10.27;;;3.00;85.80;;;;;;5066886;28;20219;-86
2023/12/08 11:38:56;;;;;;;25.35;10.45;;;3.00;85.90;;;;;;5066439;28;20127;-86
2023/12/08 11:41:24;;;;;;;26.13;10.65;;;3.00;86.00;;;;;;5067777;28;20084;-86
2023/12/08 11:43:52;;;;;;;24.47;10.27;;;3.00;86.00;;;;;;5048819;28;20056;-85
2023/12/08 11:46:45;;;;;;;23.05;10.48;;;3.10;86.00;;;;;;5065344;28;20276;-86
2023/12/08 11:49:12;;;;;;;30.55;10.55;;;3.10;86.00;;;;;;5050831;28;20053;-86
2023/12/08 11:51:39;;;;;;;26.23;11.00;;;3.10;86.00;;;;;;5048401;28;20059;-88
2023/12/08 11:54:07;;;;;;;21.90;10.02;;;3.10;86.00;;;;;;5075552;28;20881;-86
2023/12/08 11:56:42;;;;;;;26.53;10.37;;;3.10;86.10;;;;;;5057316;28;20050;-86
2023/12/08 11:59:09;;;;;;;24.42;10.30;;;3.10;86.10;;;;;;5055099;28;20303;-84
2023/12/08 12:01:38;;;;;;;26.73;11.05;;;3.20;86.00;;;;;;5083909;28;20507;-88
2023/12/08 12:04:06;;;;;;;24.83;10.27;;;3.20;86.00;;;;;;5066684;28;20056;-86
2023/12/08 12:06:35;;;;;;;26.27;10.82;;;3.20;86.00;;;;;;5065845;28;20491;-86
2023/12/08 12:09:04;;;;;;;28.17;11.00;;;3.30;85.90;;;;;;5050410;28;20053;-87
2023/12/08 12:11:36;;;;;;;24.77;10.55;;;3.20;86.00;;;;;;5065903;28;20276;-87
2023/12/08 12:14:07;;;;;;;25.77;10.57;;;3.30;86.00;;;;;;5067109;28;20060;-85
2023/12/08 12:16:34;;;;;;;27.55;11.15;;;3.30;85.90;;;;;;5048242;28;20554;-86
2023/12/08 12:19:01;;;;;;;30.75;11.60;;;3.30;85.80;;;;;;5066282;28;20052;-87
2023/12/08 12:21:32;;;;;;;27.17;10.67;;;3.30;85.90;;;;;;5049086;28;20608;-87
2023/12/08 12:23:59;;;;;;;26.38;11.10;;;3.30;85.90;;;;;;5062398;28;20252;-86
2023/12/08 12:26:26;;;;;;;26.95;10.88;;;3.30;85.90;;;;;;5049059;28;20511;-83
2023/12/08 12:28:53;;;;;;;28.77;10.32;;;3.30;85.90;;;;;;5046358;28;20085;-82
2023/12/08 12:31:20;;;;;;;29.33;11.43;;;3.30;85.90;;;;;;5045495;28;20116;-83
2023/12/08 12:33:48;;;;;;;28.93;10.87;;;3.30;85.90;;;;;;5064638;28;20053;-86
2023/12/08 12:36:15;;;;;;;27.95;10.50;;;3.30;86.00;;;;;;5065099;28;20753;-84
2023/12/08 12:38:43;;;;;;;28.58;11.57;;;3.30;86.00;;;;;;5064929;28;20104;-84
2023/12/08 12:41:20;;;;;;;27.33;11.40;;;3.30;86.00;;;;;;5048056;28;20056;-85
2023/12/08 12:43:48;;;;;;;28.38;11.95;;;3.30;86.00;;;;;;5047728;28;20065;-86
2023/12/08 12:46:16;;;;;;;30.57;11.70;;;3.30;86.10;;;;;;5045471;28;20085;-86
2023/12/08 12:48:47;;;;;;;29.52;11.60;;;3.30;86.10;;;;;;5049152;28;20267;-87